createdAt,value
2022-09-07T20:43:05.517Z,20
2022-09-07T20:44:12.829Z,20
2022-09-07T20:45:20.792Z,20
2022-09-07T20:46:29.086Z,19.9
2022-09-07T20:47:36.667Z,19.9
2022-09-07T20:48:44.604Z,19.9
2022-09-07T20:49:52.549Z,19.9
2022-09-07T20:50:59.827Z,19.8
2022-09-07T20:52:07.098Z,19.8
2022-09-07T20:53:14.375Z,19.8
2022-09-07T21:29:23.743Z,19.4
2022-09-07T21:30:31.103Z,19.4
2022-09-07T21:31:52.299Z,19.3
2022-09-07T21:46:26.069Z,19.2
2022-09-07T21:47:33.727Z,19.2
2022-09-07T21:48:41.666Z,19.2
2022-09-07T21:49:48.995Z,19.2
2022-09-07T21:50:56.933Z,19.2
2022-09-07T21:52:04.204Z,19.2
2022-09-07T21:53:11.707Z,19.2
2022-09-07T21:54:19.671Z,19.2
2022-09-07T21:55:27.245Z,19.2
2022-09-07T21:56:34.519Z,19.2
2022-09-07T21:57:41.790Z,19.3
2022-09-07T21:58:49.723Z,19.3
2022-09-07T22:00:07.611Z,19.3
2022-09-07T22:01:15.663Z,19.2
2022-09-07T22:02:23.707Z,19.2
2022-09-07T22:03:31.332Z,19.2
2022-09-07T22:22:00.059Z,19.1
2022-09-07T22:23:07.122Z,19.1
2022-09-07T22:24:14.387Z,19.1
2022-09-07T22:25:21.668Z,19.1
2022-09-07T22:26:29.126Z,19.1
2022-09-07T22:55:32.174Z,19.1
2022-09-07T22:56:39.464Z,19.1
2022-09-07T22:57:47.425Z,19.1
2022-09-07T22:58:56.068Z,19.1
2022-09-07T23:00:04.039Z,19.1
2022-09-07T23:01:11.975Z,19.1
2022-09-07T23:02:19.908Z,19.1
2022-09-07T23:03:09.064Z,19.1
2022-09-07T23:04:17.379Z,19.1
2022-09-07T23:05:24.919Z,19
2022-09-07T23:06:32.188Z,19
2022-09-07T23:07:39.451Z,19
2022-09-07T23:08:47.391Z,19
2022-09-07T23:09:54.682Z,18.9
2022-09-07T23:10:39.177Z,18.9
2022-09-07T23:11:46.460Z,18.9
2022-09-07T23:12:53.742Z,18.9
2022-09-07T23:14:01.681Z,18.8
2022-09-07T23:15:08.974Z,18.8
2022-09-07T23:16:16.699Z,18.8
2022-09-07T23:17:24.860Z,18.8
2022-09-07T23:19:28.300Z,18.9
2022-09-07T23:20:39.003Z,18.8
2022-09-07T23:22:30.872Z,18.8
2022-09-07T23:23:38.161Z,18.8
2022-09-07T23:24:45.450Z,18.8
2022-09-07T23:25:52.820Z,18.8
2022-09-07T23:27:00.149Z,18.8
2022-09-07T23:28:07.436Z,18.8
2022-09-07T23:28:44.195Z,18.8
2022-09-07T23:29:52.150Z,18.8
2022-09-07T23:31:00.234Z,18.8
2022-09-07T23:32:07.748Z,18.8
2022-09-07T23:33:15.738Z,18.7
2022-09-07T23:34:24.393Z,18.8
2022-09-07T23:35:32.366Z,18.8
2022-09-07T23:36:39.657Z,18.8
2022-09-07T23:37:47.825Z,18.7
2022-09-07T23:38:55.324Z,18.7
2022-09-07T23:40:03.421Z,18.7
2022-09-07T23:41:10.989Z,18.7
2022-09-07T23:42:18.370Z,18.7
2022-09-07T23:43:25.654Z,18.7
2022-09-07T23:44:33.667Z,18.7
2022-09-07T23:45:41.641Z,18.7
2022-09-07T23:46:49.028Z,18.6
2022-09-07T23:47:56.598Z,18.6
2022-09-07T23:54:24.060Z,18.6
2022-09-07T23:55:32.090Z,18.5
2022-09-07T23:56:39.434Z,18.5
2022-09-07T23:57:46.764Z,18.5
2022-09-07T23:58:54.060Z,18.5
